• Join FlightAware (Why Join?)
  • Login
  • US Flag 
12:39AM EDT


 

Airport Tracker/Info


-or-


 

Live Flight TrackerFlight Track Log ✈ AWE3397 ✈ 22-Apr-2013 ✈ KMHT - KPHL

Flight Track Log - Related Links

Times and Time Zones

All times are in EDT time to prevent confusion due to time zone crossing. See the AWE3397 flight status page for this flight to view local times or setup timezone preferences in your user account.

Time Position Orientation Groundspeed Altitude Reporting Facility
EDT Latitude Longitude Course Direction KTS MPH feet Rate Location/Type
05:35AM 42.9500 -71.4167 274° West 147 169 1,400  Level KA90
05:35AM 42.9794 -71.4128 North 202 232 2,700 2,400 Climbing Boston Center
05:36AM 43.0297 -71.4544 329° Northwest 208 239 5,500 2,880 Climbing Boston Center
05:37AM 42.9355 -71.8273 285° West  Level FlightAware Approximate
05:37AM 43.0575 -71.5478 292° West 265 305 8,500  Level Boston Center
05:38AM 42.9500 -71.9568 270° West  Level FlightAware Approximate
05:38AM 43.0269 -71.6506 248° West 265 305 11,300  Level Boston Center
05:39AM 42.9501 -72.0890 270° West  Level FlightAware Approximate
05:39AM 43.0047 -71.7558 254° West 306 352 13,900  Level Boston Center
05:40AM 42.9502 -72.2212 274° West  Level FlightAware Approximate
05:40AM 42.9742 -71.8811 252° West 319 367 16,800  Level Boston Center
05:41AM 42.9475 -71.9864 251° West 329 379 18,300 1,680 Climbing Boston Center
05:42AM 42.9208 -72.1056 253° West 329 379 20,200 1,920 Climbing Boston Center
05:43AM 42.8878 -72.2275 250° West 334 384 22,200 1,860 Climbing Boston Center
05:44AM 42.8650 -72.3522 256° West 340 391 24,000 900 Climbing Boston Center
05:45AM 42.8339 -72.4769 251° West 340 391 24,000  Level Boston Center
05:46AM 42.8025 -72.6014 251° West 345 397 24,000  Level Boston Center
05:47AM 42.7669 -72.7200 248° West 345 397 24,000  Level Boston Center
05:48AM 42.7372 -72.8386 251° West 345 397 24,000  Level Boston Center
05:49AM 42.7033 -72.9797 252° West 353 406 24,000 180 Level Boston Center
05:50AM 42.6736 -73.0981 251° West 364 419 24,400 960 Climbing Boston Center
05:51AM 42.6394 -73.2389 252° West 364 419 26,000 780 Climbing Boston Center
05:52AM 42.6072 -73.3542 249° West 358 412 26,000  Level Boston Center
05:53AM 42.5750 -73.4806 251° West 353 406 26,000  Level Boston Center
05:54AM 42.5425 -73.6067 251° West 353 406 26,000  Level Boston Center
05:55AM 42.5097 -73.7300 250° West 347 399 26,000  Level Boston Center
05:56AM 42.4769 -73.8533 250° West 352 405 26,000  Level Boston Center
05:57AM 42.4442 -73.9792 251° West 352 405 26,000  Level Boston Center
05:58AM 42.4111 -74.1047 250° West 352 405 26,000  Level Boston Center
05:59AM 42.3781 -74.2275 250° West 352 405 26,000  Level Boston Center
06:00AM 42.3447 -74.3503 250° West 352 405 26,000  Level Boston Center
06:01AM 42.3114 -74.4644 248° West 352 405 26,000  Level Boston Center
06:03AM 42.2478 -74.6956 250° West 357 411 26,000 -180 Level New York Center
06:04AM 42.2144 -74.8225 251° West 357 411 25,500 -1,140 Descending New York Center
06:05AM 42.1789 -74.9433 248° West 357 411 23,700 -1,740 Descending New York Center
06:06AM 42.1097 -75.0144 217° Southwest 344 396 22,000 -1,800 Descending New York Center
06:07AM 42.0283 -75.0817 212° Southwest 339 390 20,200 -1,560 Descending New York Center
06:08AM 41.9425 -75.1542 212° Southwest 345 397 19,000 -660 Descending New York Center
06:09AM 41.8631 -75.2186 211° Southwest 345 397 19,000  Level New York Center
06:10AM 41.7814 -75.2853 211° Southwest 345 397 19,000 -480 Level New York Center
06:11AM 41.7039 -75.3469 211° Southwest 353 406 18,100 -1,200 Descending New York Center
06:12AM 41.6203 -75.4133 211° Southwest 353 406 16,700 -2,040 Descending New York Center
06:13AM 41.5297 -75.4872 211° Southwest 348 400 14,100 -2,340 Descending New York Center
06:14AM 41.4481 -75.5508 210° Southwest 348 400 12,000 -1,080 Descending New York Center
06:15AM 41.3706 -75.6144 212° Southwest 348 400 12,000  Level New York Center
06:16AM 41.2975 -75.6728 211° Southwest 348 400 12,000 -60 Level New York Center
06:17AM 41.2092 -75.6883 188° South 327 376 11,900  Descending New York Center
06:18AM 41.1092 -75.6894 180° South 327 376 12,000  Climbing New York Center
06:19AM 41.0175 -75.6881 179° South 333 383 12,000  Level New York Center
06:20AM 40.9239 -75.6869 179° South 333 383 12,000  Level New York Center
06:21AM 40.8353 -75.6639 169° South 328 377 12,000  Level New York Center
06:22AM 40.7519 -75.6142 156° South 328 377 12,000  Level New York Center
06:23AM 40.6747 -75.5678 156° South 338 389 12,000  Level New York Center
06:24AM 40.6214 -75.5342 154° Southeast 333 383 12,000  Level FAA TRACON SMA TRACON (SMA)
06:24AM 40.5953 -75.5192 156° South 333 383 12,000  Level FAA TRACON SMA TRACON (SMA)
06:24AM 40.5642 -75.4986 153° Southeast 332 382 12,000 -600 Level FAA TRACON SMA TRACON (SMA)
06:25AM 40.5375 -75.4853 159° South 323 372 11,600 -1,380 Descending FAA TRACON SMA TRACON (SMA)
06:25AM 40.5139 -75.4706 155° Southeast 307 353 11,100 -1,680 Descending FAA TRACON SMA TRACON (SMA)
06:25AM 40.4853 -75.4531 155° Southeast 294 338 10,500 -1,500 Descending FAA TRACON SMA TRACON (SMA)
06:26AM 40.4625 -75.4394 156° South 290 334 10,100 -780 Descending FAA TRACON SMA TRACON (SMA)
06:26AM 40.4406 -75.4267 156° South 283 326 10,000 -780 Descending FAA TRACON SMA TRACON (SMA)
06:26AM 40.4131 -75.4219 173° South 276 318 9,600 -1,380 Descending FAA TRACON SMA TRACON (SMA)
06:27AM 40.3878 -75.4192 175° South 284 327 9,100 -1,500 Descending FAA TRACON SMA TRACON (SMA)
06:27AM 40.3678 -75.4192 180° South 272 313 8,600 -1,800 Descending FAA TRACON SMA TRACON (SMA)
06:27AM 40.3369 -75.4147 174° South 271 312 7,900 -1,380 Descending FAA TRACON SMA TRACON (SMA)
06:28AM 40.3136 -75.4153 181° South 266 306 7,700 -900 Descending FAA TRACON SMA TRACON (SMA)
06:28AM 40.2917 -75.4139 177° South 261 300 7,300 -1,080 Descending FAA TRACON SMA TRACON (SMA)
06:28AM 40.2639 -75.4111 176° South 262 302 7,000 -480 Descending FAA TRACON SMA TRACON (SMA)
06:29AM 40.2419 -75.4114 181° South 262 302 7,000  Level FAA TRACON SMA TRACON (SMA)
06:29AM 40.2178 -75.4100 177° South 264 304 7,000  Level FAA TRACON SMA TRACON (SMA)
06:29AM 40.1908 -75.4092 179° South 265 305 7,000  Level FAA TRACON SMA TRACON (SMA)
06:30AM 40.1667 -75.4081 178° South 265 305 7,000  Level FAA TRACON SMA TRACON (SMA)
06:30AM 40.1408 -75.4142 190° South 269 310 7,000  Level FAA TRACON SMA TRACON (SMA)
06:30AM 40.1214 -75.4333 217° Southwest 272 313 7,000 -180 Level FAA TRACON SMA TRACON (SMA)
06:31AM 40.1036 -75.4517 218° Southwest 263 303 6,900 -780 Descending FAA TRACON SMA TRACON (SMA)
06:31AM 40.0858 -75.4703 219° Southwest 265 305 6,500 -1,080 Descending FAA TRACON SMA TRACON (SMA)
06:31AM 40.0683 -75.4889 219° Southwest 266 306 6,200 -780 Descending FAA TRACON SMA TRACON (SMA)
06:32AM 40.0464 -75.5125 219° Southwest 265 305 6,000 -300 Descending FAA TRACON SMA TRACON (SMA)
06:32AM 40.0294 -75.5317 221° Southwest 263 303 6,000 -180 Level FAA TRACON SMA TRACON (SMA)
06:32AM 40.0094 -75.5544 221° Southwest 265 305 5,900 -900 Descending FAA TRACON SMA TRACON (SMA)
06:33AM 39.9950 -75.5706 221° Southwest 266 306 5,400 -1,800 Descending FAA TRACON SMA TRACON (SMA)
06:33AM 39.9733 -75.5964 222° Southwest 272 313 4,700 -1,860 Descending FAA TRACON SMA TRACON (SMA)
06:33AM 39.9561 -75.6197 226° Southwest 276 318 4,200 -1,080 Descending FAA TRACON SMA TRACON (SMA)
06:34AM 39.9336 -75.6381 212° Southwest 268 308 4,000 -300 Descending FAA TRACON SMA TRACON (SMA)
06:34AM 39.9128 -75.6378 179° South 226 260 4,000  Level FAA TRACON SMA TRACON (SMA)
06:34AM 39.8906 -75.6358 176° South 206 237 4,000  Level FAA TRACON SMA TRACON (SMA)
06:35AM 39.8731 -75.6336 174° South 203 234 4,000  Level FAA TRACON SMA TRACON (SMA)
06:35AM 39.8619 -75.6233 145° Southeast 158 182 4,000 -480 Level FAA TRACON SMA TRACON (SMA)
06:35AM 39.8489 -75.6131 149° Southeast 168 193 3,700 -1,200 Descending FAA TRACON SMA TRACON (SMA)
06:36AM 39.8381 -75.5961 130° Southeast 167 192 3,200 -1,080 Descending FAA TRACON SMA TRACON (SMA)
06:36AM 39.8331 -75.5786 110° East 154 177 3,000 -300 Descending FAA TRACON SMA TRACON (SMA)
06:36AM 39.8272 -75.5589 111° Southeast 157 181 3,000  Level FAA TRACON SMA TRACON (SMA)
06:37AM 39.8228 -75.5431 110° East 158 182 3,000  Level FAA TRACON SMA TRACON (SMA)
06:37AM 39.8175 -75.5264 112° Southeast 157 181 3,000  Level FAA TRACON SMA TRACON (SMA)
06:37AM 39.8136 -75.5053 103° East 154 177 3,000  Level FAA TRACON SMA TRACON (SMA)
06:38AM 39.8181 -75.4889 71° East 160 184 3,000  Level FAA TRACON SMA TRACON (SMA)
06:38AM 39.8214 -75.4722 75° East 157 181 3,000 -180 Level FAA TRACON SMA TRACON (SMA)
06:38AM 39.8247 -75.4556 75° East 153 176 2,900 -600 Descending FAA TRACON SMA TRACON (SMA)
06:39AM 39.8289 -75.4344 76° East 155 178 2,600 -780 Descending FAA TRACON SMA TRACON (SMA)
06:39AM 39.8319 -75.4183 76° East 157 181 2,400 -900 Descending FAA TRACON SMA TRACON (SMA)
06:39AM 39.8367 -75.3956 75° East 159 183 2,000 -1,080 Descending FAA TRACON SMA TRACON (SMA)
06:40AM 39.8400 -75.3783 76° East 160 184 1,700 -840 Descending FAA TRACON SMA TRACON (SMA)
06:40AM 39.8444 -75.3569 75° East 158 182 1,400 -840 Descending FAA TRACON SMA TRACON (SMA)
06:40AM 39.8469 -75.3428 77° East 138 159 1,100 -840 Descending FAA TRACON SMA TRACON (SMA)
06:41AM 39.8497 -75.3303 74° East 114 131 900 -540 Descending FAA TRACON SMA TRACON (SMA)
06:41AM 39.8522 -75.3183 75° East 109 125 800 -300 Descending FAA TRACON SMA TRACON (SMA)